Time;durP1;ratioP1;P1;durP2;ratioP2;P2;SDS_P1;SDS_P2;PMS_P1;PMS_P2;Temp;Humidity;BMP_temperature;BMP_pressure;BME280_temperature;BME280_humidity;BME280_pressure;Samples;Min_cycle;Max_cycle;Signal;HPM_P1;HPM_P2
2023/01/14 00:01:57;;;;;;;2.10;1.40;;;;;;;4.95;100.00;96700.75;4977958;28;20218;-70
2023/01/14 00:04:23;;;;;;;1.03;0.80;;;;;;;4.87;100.00;96700.56;4977709;28;20211;-71
2023/01/14 00:06:50;;;;;;;2.30;0.63;;;;;;;4.81;100.00;96702.84;4977682;28;20256;-71
2023/01/14 00:09:17;;;;;;;0.93;0.80;;;;;;;4.81;100.00;96702.03;4977764;28;20253;-72
2023/01/14 00:11:50;;;;;;;2.50;0.87;;;;;;;4.77;100.00;96695.44;4978968;28;20207;-70
2023/01/14 00:14:18;;;;;;;1.97;0.90;;;;;;;4.86;100.00;96695.47;4977591;28;20207;-72
2023/01/14 00:16:46;;;;;;;1.13;0.70;;;;;;;4.86;100.00;96688.47;4977657;28;20234;-71
2023/01/14 00:19:13;;;;;;;1.53;0.93;;;;;;;4.80;100.00;96690.78;4977391;28;20206;-71
2023/01/14 00:21:41;;;;;;;3.03;1.13;;;;;;;4.87;100.00;96694.50;4977777;28;20227;-72
2023/01/14 00:24:09;;;;;;;2.20;0.90;;;;;;;4.96;100.00;96686.72;4977143;28;20285;-72
2023/01/14 00:26:35;;;;;;;3.07;1.23;;;;;;;4.84;100.00;96695.59;4978140;28;20215;-71
2023/01/14 00:29:02;;;;;;;2.13;0.80;;;;;;;4.93;100.00;96700.03;4977868;28;20211;-71
2023/01/14 00:31:29;;;;;;;2.97;0.80;;;;;;;5.02;100.00;96696.63;4978863;28;20199;-72
2023/01/14 00:33:59;;;;;;;6.93;0.90;;;;;;;5.15;100.00;96684.16;4976561;28;20218;-71
2023/01/14 00:36:27;;;;;;;3.37;1.17;;;;;;;5.10;100.00;96693.34;4977970;28;20653;-71
2023/01/14 00:38:54;;;;;;;3.83;0.87;;;;;;;5.17;100.00;96700.53;4978406;28;20222;-70
2023/01/14 00:41:23;;;;;;;1.43;0.97;;;;;;;5.22;100.00;96695.75;4977705;28;20246;-72
2023/01/14 00:43:51;;;;;;;1.07;0.87;;;;;;;5.08;100.00;96685.66;4976952;28;20203;-73
2023/01/14 00:46:19;;;;;;;3.47;0.80;;;;;;;5.20;100.00;96676.75;4978226;28;20203;-72
2023/01/14 00:48:46;;;;;;;1.13;0.50;;;;;;;5.08;100.00;96672.59;4978150;28;20199;-72
2023/01/14 00:51:14;;;;;;;1.50;0.70;;;;;;;5.21;100.00;96669.75;4977307;28;20679;-70
2023/01/14 00:53:42;;;;;;;0.83;0.60;;;;;;;5.28;100.00;96669.06;4976737;28;20214;-71
2023/01/14 00:56:09;;;;;;;2.50;0.70;;;;;;;5.31;100.00;96674.03;4977313;28;20211;-71
2023/01/14 00:58:36;;;;;;;3.63;0.47;;;;;;;5.30;100.00;96672.38;4977822;28;20207;-72
2023/01/14 01:01:02;;;;;;;2.23;0.80;;;;;;;5.42;100.00;96678.31;4977708;28;20229;-72
2023/01/14 01:03:29;;;;;;;2.97;0.73;;;;;;;5.42;100.00;96668.66;4977293;28;20628;-72
2023/01/14 01:05:55;;;;;;;1.83;0.70;;;;;;;5.49;100.00;96675.03;4976831;28;20218;-71
2023/01/14 01:08:24;;;;;;;2.60;0.80;;;;;;;5.60;100.00;96672.25;4977436;28;20242;-72
2023/01/14 01:10:52;;;;;;;2.30;0.60;;;;;;;5.70;100.00;96684.41;4977721;28;20211;-72
2023/01/14 01:13:19;;;;;;;4.17;0.93;;;;;;;5.54;100.00;96691.13;4976643;28;20210;-71
2023/01/14 01:15:46;;;;;;;1.47;0.90;;;;;;;5.59;100.00;96691.56;4977320;28;20222;-70
2023/01/14 01:18:13;;;;;;;0.50;0.50;;;;;;;5.69;100.00;96682.75;4977269;28;20215;-72
2023/01/14 01:20:39;;;;;;;3.00;0.50;;;;;;;5.61;100.00;96687.00;4977089;28;20230;-71
2023/01/14 01:23:08;;;;;;;3.10;0.90;;;;;;;5.61;100.00;96684.38;4977122;28;20675;-72
2023/01/14 01:25:36;;;;;;;1.70;0.80;;;;;;;5.65;100.00;96693.59;4976840;28;20199;-72
2023/01/14 01:28:03;;;;;;;0.83;0.50;;;;;;;5.56;100.00;96686.56;4978620;28;20229;-71
2023/01/14 01:30:29;;;;;;;7.27;0.70;;;;;;;5.65;100.00;96685.75;4981222;28;20203;-73
2023/01/14 01:32:56;;;;;;;4.43;0.80;;;;;;;5.57;100.00;96701.31;4981725;28;20215;-71
2023/01/14 01:35:23;;;;;;;8.80;0.80;;;;;;;5.49;100.00;96701.16;4980052;28;20203;-71
2023/01/14 01:37:50;;;;;;;11.23;0.80;;;;;;;5.55;100.00;96716.31;4981175;28;20242;-73
2023/01/14 01:40:16;;;;;;;6.80;1.27;;;;;;;5.55;100.00;96713.69;4981243;28;20222;-71
2023/01/14 01:42:55;;;;;;;5.20;0.63;;;;;;;5.72;100.00;96718.25;4981098;28;20214;-72
2023/01/14 01:45:28;;;;;;;5.63;1.53;;;;;;;5.79;100.00;96717.63;4980147;28;20203;-71
2023/01/14 01:48:00;;;;;;;1.27;0.50;;;;;;;5.77;100.00;96721.31;4980877;28;20234;-70
2023/01/14 01:50:27;;;;;;;3.10;0.70;;;;;;;5.47;100.00;96713.53;4981564;28;20199;-72
2023/01/14 01:52:53;;;;;;;3.50;0.70;;;;;;;5.48;100.00;96715.19;4980314;28;20695;-72
2023/01/14 01:55:21;;;;;;;0.90;0.60;;;;;;;5.60;100.00;96716.69;4980142;28;20214;-71
2023/01/14 01:57:55;;;;;;;7.93;1.37;;;;;;;5.58;100.00;96716.84;4980308;28;20234;-71
2023/01/14 02:00:23;;;;;;;7.97;0.80;;;;;;;5.58;100.00;96710.81;4980450;28;20210;-70
2023/01/14 02:02:54;;;;;;;0.73;0.40;;;;;;;5.57;100.00;96707.34;4980966;28;20203;-71
2023/01/14 02:05:21;;;;;;;1.10;0.50;;;;;;;5.59;100.00;96702.00;4979804;28;20727;-73
2023/01/14 02:07:48;;;;;;;5.17;1.00;;;;;;;5.43;100.00;96704.31;4980169;28;21315;-72
2023/01/14 02:10:16;;;;;;;0.37;0.30;;;;;;;5.52;100.00;96703.50;4980414;28;20207;-70
2023/01/14 02:13:01;;;;;;;4.53;0.90;;;;;;;5.69;100.00;96706.28;4981023;28;20675;-71
2023/01/14 02:15:40;;;;;;;4.83;1.10;;;;;;;5.68;100.00;96701.19;4979343;28;21402;-72
2023/01/14 02:18:21;;;;;;;1.47;0.67;;;;;;;5.70;100.00;96700.09;4980280;28;20226;-72
2023/01/14 02:20:57;;;;;;;2.63;0.70;;;;;;;5.56;100.00;96695.25;4981000;28;20215;-71
2023/01/14 02:24:12;;;;;;;0.60;0.50;;;;;;;5.57;100.00;96703.91;4980391;28;20209;-71
2023/01/14 02:27:03;;;;;;;9.30;0.83;;;;;;;5.58;100.00;96700.34;4938529;28;20243;-72
2023/01/14 02:30:07;;;;;;;1.90;0.50;;;;;;;5.51;100.00;96705.28;4980791;28;20294;-70
2023/01/14 02:32:38;;;;;;;2.13;0.67;;;;;;;5.43;100.00;96706.91;4980126;28;20206;-72
2023/01/14 02:35:15;;;;;;;6.10;0.90;;;;;;;5.38;100.00;96714.31;4979549;28;20210;-71
2023/01/14 02:37:51;;;;;;;1.37;1.03;;;;;;;5.36;100.00;96710.19;4980534;28;20674;-71
2023/01/14 02:40:23;;;;;;;3.73;1.10;;;;;;;5.30;100.00;96706.34;4979964;28;20200;-71
2023/01/14 02:45:47;;;;;;;2.17;0.80;;;;;;;5.31;100.00;96705.38;4979379;28;20333;-72
2023/01/14 02:48:15;;;;;;;5.10;1.13;;;;;;;5.28;100.00;96705.63;4979529;28;20227;-71
2023/01/14 02:50:42;;;;;;;1.30;1.00;;;;;;;5.26;100.00;96720.63;4980054;28;20203;-73
2023/01/14 02:53:10;;;;;;;4.10;0.77;;;;;;;5.35;100.00;96713.78;4979530;28;20214;-72
2023/01/14 02:55:39;;;;;;;3.03;1.20;;;;;;;5.36;100.00;96705.81;4979038;28;20207;-71
2023/01/14 02:58:21;;;;;;;2.27;0.97;;;;;;;5.41;100.00;96708.84;4979409;28;20238;-71
2023/01/14 03:00:59;;;;;;;6.47;1.00;;;;;;;5.37;100.00;96701.41;4979754;28;20586;-71
2023/01/14 03:03:39;;;;;;;2.90;1.27;;;;;;;5.34;100.00;96705.09;4979071;28;20199;-71
2023/01/14 03:06:19;;;;;;;2.07;0.87;;;;;;;5.36;100.00;96713.66;4979708;28;20210;-72
2023/01/14 03:08:54;;;;;;;2.47;0.80;;;;;;;5.28;100.00;96696.97;4979117;28;20207;-72
2023/01/14 03:11:21;;;;;;;3.90;1.00;;;;;;;5.22;100.00;96703.56;4979710;28;20214;-71
2023/01/14 03:13:51;;;;;;;1.23;0.67;;;;;;;5.21;100.00;96694.06;4978793;28;20203;-71
2023/01/14 03:16:28;;;;;;;3.20;0.90;;;;;;;5.22;100.00;96693.13;4979165;28;20235;-71
2023/01/14 03:19:02;;;;;;;2.20;0.87;;;;;;;5.21;100.00;96701.91;4978867;28;20232;-72
2023/01/14 03:21:34;;;;;;;1.23;0.53;;;;;;;5.19;100.00;96703.00;4980678;28;20215;-71
2023/01/14 03:24:05;;;;;;;4.87;1.13;;;;;;;4.98;100.00;96705.69;4978548;28;20221;-71
2023/01/14 03:26:34;;;;;;;2.10;0.83;;;;;;;5.03;100.00;96703.50;4979552;28;20294;-71
2023/01/14 03:29:08;;;;;;;5.73;0.70;;;;;;;5.16;100.00;96704.09;4979117;28;20207;-72
2023/01/14 03:31:41;;;;;;;3.90;1.00;;;;;;;5.20;100.00;96699.44;4979484;28;20203;-71
2023/01/14 03:34:11;;;;;;;0.73;0.73;;;;;;;5.15;100.00;96702.44;4977614;28;20203;-71
2023/01/14 03:36:41;;;;;;;6.17;0.87;;;;;;;5.21;100.00;96701.91;4980466;28;20227;-71
2023/01/14 03:39:12;;;;;;;2.77;1.07;;;;;;;5.14;100.00;96698.19;4978605;28;20667;-71
2023/01/14 03:44:30;;;;;;;1.47;0.67;;;;;;;5.11;100.00;96693.22;4978149;28;20206;-70
2023/01/14 03:46:58;;;;;;;1.77;1.20;;;;;;;5.00;100.00;96698.56;4979213;28;20238;-72
2023/01/14 03:49:24;;;;;;;3.30;0.50;;;;;;;5.02;100.00;96691.41;4978591;28;20294;-71
2023/01/14 03:51:58;;;;;;;2.50;0.70;;;;;;;4.95;100.00;96685.06;4976899;28;20210;-71
2023/01/14 03:54:29;;;;;;;1.77;0.77;;;;;;;4.91;100.00;96688.91;4977454;28;20203;-72
2023/01/14 03:57:05;;;;;;;4.07;0.90;;;;;;;5.02;100.00;96680.97;4978692;28;20230;-72
2023/01/14 03:59:42;;;;;;;4.93;0.70;;;;;;;5.03;100.00;96684.41;4978521;28;20198;-72
2023/01/14 04:02:11;;;;;;;0.77;0.50;;;;;;;5.00;100.00;96682.88;4978662;28;20603;-72
2023/01/14 04:04:38;;;;;;;1.70;0.60;;;;;;;4.87;100.00;96677.06;4977483;28;20199;-71
2023/01/14 04:07:04;;;;;;;0.70;0.50;;;;;;;4.90;100.00;96691.63;4978966;28;21126;-71
2023/01/14 04:09:31;;;;;;;5.37;0.53;;;;;;;4.78;100.00;96684.03;4978392;28;20199;-71
2023/01/14 04:11:57;;;;;;;0.67;0.40;;;;;;;4.78;100.00;96687.47;4978582;28;20203;-70
2023/01/14 04:17:14;;;;;;;2.23;0.63;;;;;;;4.89;100.00;96677.75;4972519;28;20591;-71
2023/01/14 04:19:41;;;;;;;1.43;0.57;;;;;;;4.80;100.00;96676.88;4978021;28;20700;-70
2023/01/14 04:22:07;;;;;;;2.13;0.63;;;;;;;4.79;100.00;96680.47;4978021;28;20714;-70
2023/01/14 04:24:34;;;;;;;1.77;0.57;;;;;;;4.74;100.00;96680.03;4977050;28;21253;-70
2023/01/14 04:27:00;;;;;;;4.93;0.90;;;;;;;4.73;100.00;96679.19;4977153;28;20226;-72
2023/01/14 04:29:27;;;;;;;0.70;0.40;;;;;;;4.69;100.00;96671.78;4978545;28;20195;-70
2023/01/14 04:31:53;;;;;;;0.60;0.40;;;;;;;4.66;100.00;96669.41;4978861;28;21153;-72
2023/01/14 04:34:21;;;;;;;2.10;0.53;;;;;;;4.74;100.00;96665.19;4977656;28;20402;-71
2023/01/14 04:36:47;;;;;;;2.23;0.80;;;;;;;4.64;100.00;96668.72;4977851;28;20307;-70
2023/01/14 04:39:14;;;;;;;1.17;0.40;;;;;;;4.63;100.00;96673.09;4977988;28;20203;-71
2023/01/14 04:44:36;;;;;;;0.53;0.50;;;;;;;4.67;100.00;96673.69;4954509;28;20237;-71
2023/01/14 04:47:02;;;;;;;0.73;0.43;;;;;;;4.70;100.00;96676.00;4971993;28;20223;-72
2023/01/14 04:49:30;;;;;;;1.50;0.53;;;;;;;4.77;100.00;96677.97;4977873;28;20199;-71
2023/01/14 04:51:56;;;;;;;2.03;0.70;;;;;;;4.68;100.00;96685.78;4977849;28;20210;-71
2023/01/14 04:54:23;;;;;;;0.97;0.73;;;;;;;4.63;100.00;96677.50;4977658;28;20207;-70
2023/01/14 04:56:50;;;;;;;2.30;1.07;;;;;;;4.57;100.00;96672.81;4977641;28;20230;-72
2023/01/14 04:59:16;;;;;;;2.43;1.27;;;;;;;4.54;100.00;96668.66;4977560;28;20204;-72
2023/01/14 05:01:43;;;;;;;3.13;1.33;;;;;;;4.60;100.00;96669.94;4977966;28;20226;-70
2023/01/14 05:04:09;;;;;;;6.10;1.40;;;;;;;4.67;100.00;96678.91;4981682;28;20210;-70
2023/01/14 05:06:37;;;;;;;1.93;1.03;;;;;;;4.67;100.00;96673.69;4981568;28;20241;-71
2023/01/14 05:09:03;;;;;;;3.60;1.10;;;;;;;4.54;100.00;96662.63;4981710;28;20209;-70
2023/01/14 05:11:30;;;;;;;1.93;1.00;;;;;;;4.63;100.00;96664.47;4981708;28;20670;-70
2023/01/14 05:13:56;;;;;;;4.30;1.00;;;;;;;4.67;100.00;96668.47;4981170;28;21025;-70
2023/01/14 05:16:23;;;;;;;11.43;1.17;;;;;;;4.59;100.00;96655.25;4981264;28;20218;-72
2023/01/14 05:18:51;;;;;;;2.37;0.63;;;;;;;4.64;100.00;96651.28;4981707;28;20231;-71
2023/01/14 05:21:18;;;;;;;3.23;0.60;;;;;;;4.53;100.00;96650.53;4981516;28;20252;-71
2023/01/14 05:23:46;;;;;;;0.50;0.50;;;;;;;4.63;100.00;96656.63;4979069;28;20199;-72
2023/01/14 05:26:12;;;;;;;2.07;1.10;;;;;;;4.56;100.00;96645.88;4980860;28;20207;-72
2023/01/14 05:28:39;;;;;;;1.47;1.27;;;;;;;4.64;100.00;96637.41;4981384;28;20690;-70
2023/01/14 05:31:05;;;;;;;0.73;0.53;;;;;;;4.58;100.00;96643.16;4981231;28;20568;-71
2023/01/14 05:33:33;;;;;;;3.90;0.97;;;;;;;4.74;100.00;96643.50;4980831;28;20210;-72
2023/01/14 05:36:00;;;;;;;1.97;0.70;;;;;;;4.75;100.00;96643.38;4981377;28;20214;-72
2023/01/14 05:38:28;;;;;;;4.60;0.77;;;;;;;4.72;100.00;96643.59;4980982;28;20226;-70
2023/01/14 05:40:56;;;;;;;3.10;0.73;;;;;;;4.82;100.00;96651.50;4980985;28;20706;-71
2023/01/14 05:46:09;;;;;;;2.20;1.40;;;;;;;4.87;100.00;96650.97;4981402;28;20210;-70
2023/01/14 05:48:36;;;;;;;3.03;1.33;;;;;;;4.81;100.00;96655.06;4980413;28;20230;-70
2023/01/14 05:51:05;;;;;;;4.50;1.40;;;;;;;4.93;100.00;96654.81;4980916;28;20211;-70
2023/01/14 05:53:33;;;;;;;4.73;1.27;;;;;;;4.88;100.00;96657.00;4980514;28;20246;-71
2023/01/14 05:56:00;;;;;;;7.30;1.90;;;;;;;4.96;100.00;96650.19;4980628;28;21009;-70
2023/01/14 05:58:27;;;;;;;4.93;1.50;;;;;;;4.86;100.00;96654.53;4980848;28;20230;-71
2023/01/14 06:06:26;;;;;;;5.13;1.40;;;;;;;5.06;100.00;96653.59;4980320;28;20210;-71
2023/01/14 06:08:54;;;;;;;7.83;2.10;;;;;;;4.99;100.00;96644.66;4980967;28;20203;-71
2023/01/14 06:11:23;;;;;;;6.20;2.00;;;;;;;5.08;100.00;96643.06;4980790;28;20199;-71
2023/01/14 06:13:51;;;;;;;16.37;3.77;;;;;;;4.94;100.00;96630.38;4979482;28;20203;-71
2023/01/14 06:16:19;;;;;;;7.10;3.37;;;;;;;4.91;100.00;96636.69;4980027;28;20431;-71
2023/01/14 06:18:46;;;;;;;10.17;2.50;;;;;;;4.93;100.00;96634.75;4980873;28;20203;-71
2023/01/14 06:21:14;;;;;;;13.33;4.13;;;;;;;5.01;100.00;96637.50;4980572;28;20199;-70
2023/01/14 06:23:41;;;;;;;8.10;2.17;;;;;;;4.86;100.00;96631.03;4979455;28;20219;-71
2023/01/14 06:26:10;;;;;;;13.50;2.07;;;;;;;4.98;100.00;96631.75;4980365;28;20676;-71
2023/01/14 06:28:38;;;;;;;5.67;2.30;;;;;;;5.03;100.00;96624.34;4981093;28;20270;-71
2023/01/14 06:31:09;;;;;;;6.77;1.87;;;;;;;5.08;100.00;96622.16;4979996;28;20578;-70
2023/01/14 06:33:36;;;;;;;17.70;2.53;;;;;;;4.89;100.00;96628.16;4979896;28;20199;-70
2023/01/14 06:36:02;;;;;;;4.27;1.40;;;;;;;4.92;100.00;96627.88;4980332;28;20214;-70
2023/01/14 06:38:29;;;;;;;8.63;1.47;;;;;;;4.92;100.00;96617.44;4980110;28;20223;-71
2023/01/14 06:40:59;;;;;;;5.43;1.40;;;;;;;5.03;100.00;96619.13;4980260;28;20207;-70
2023/01/14 06:43:26;;;;;;;3.97;1.50;;;;;;;4.86;100.00;96617.97;4979765;28;20222;-71
2023/01/14 06:45:54;;;;;;;11.20;3.73;;;;;;;4.87;100.00;96616.19;4979368;28;21273;-71
2023/01/14 06:48:21;;;;;;;9.83;2.93;;;;;;;4.85;100.00;96608.50;4980093;28;20223;-71
2023/01/14 06:50:48;;;;;;;12.83;2.63;;;;;;;4.78;100.00;96605.72;4979763;28;20598;-70
2023/01/14 06:53:14;;;;;;;11.20;2.63;;;;;;;4.72;100.00;96607.06;4979551;28;20687;-71
2023/01/14 06:55:41;;;;;;;6.43;1.73;;;;;;;4.73;100.00;96600.06;4978582;28;20200;-70
2023/01/14 06:58:07;;;;;;;5.50;2.40;;;;;;;4.75;100.00;96600.75;4980273;28;20222;-70
2023/01/14 07:00:34;;;;;;;7.43;2.00;;;;;;;4.71;100.00;96597.59;4979761;28;20207;-70
2023/01/14 07:03:02;;;;;;;10.73;2.33;;;;;;;4.82;100.00;96598.31;4979217;28;21370;-70
2023/01/14 07:05:28;;;;;;;5.97;1.70;;;;;;;4.73;100.00;96589.63;4978910;28;20203;-71
2023/01/14 07:07:55;;;;;;;13.00;2.67;;;;;;;4.78;100.00;96597.91;4979788;28;20227;-71
2023/01/14 07:10:21;;;;;;;6.93;2.50;;;;;;;4.75;100.00;96592.91;4979312;28;20214;-70
2023/01/14 07:12:50;;;;;;;16.17;4.43;;;;;;;4.75;100.00;96592.91;4979271;28;20199;-71
2023/01/14 07:15:19;;;;;;;11.73;3.90;;;;;;;4.70;100.00;96582.91;4978506;28;20211;-71
2023/01/14 07:17:46;;;;;;;10.97;3.77;;;;;;;4.78;100.00;96579.63;4979158;28;20227;-70
2023/01/14 07:20:15;;;;;;;5.13;2.20;;;;;;;4.71;100.00;96573.28;4979686;28;20250;-70
2023/01/14 07:22:42;;;;;;;9.53;2.30;;;;;;;4.57;100.00;96573.63;4979382;28;20227;-70
2023/01/14 07:25:09;;;;;;;9.00;2.17;;;;;;;4.66;100.00;96555.41;4978038;28;20200;-70
2023/01/14 07:27:35;;;;;;;4.63;1.43;;;;;;;4.67;100.00;96562.28;4978449;28;20237;-70
2023/01/14 07:30:05;;;;;;;8.80;1.40;;;;;;;4.72;100.00;96562.69;4979646;28;20214;-70
2023/01/14 07:32:32;;;;;;;5.03;1.10;;;;;;;4.76;100.00;96558.03;4978669;28;20200;-70
2023/01/14 07:34:59;;;;;;;9.73;1.90;;;;;;;4.77;100.00;96557.09;4978383;28;20203;-70
2023/01/14 07:37:27;;;;;;;6.63;1.40;;;;;;;4.85;100.00;96556.28;4978754;28;20290;-70
2023/01/14 07:39:53;;;;;;;5.90;1.60;;;;;;;4.88;100.00;96548.16;4979423;28;20214;-70
2023/01/14 07:42:20;;;;;;;5.90;1.40;;;;;;;4.94;100.00;96549.44;4978516;28;20639;-70
2023/01/14 07:44:46;;;;;;;14.23;2.33;;;;;;;5.00;100.00;96546.25;4978948;28;20550;-70
2023/01/14 07:47:13;;;;;;;5.27;1.60;;;;;;;5.09;100.00;96550.66;4978388;28;20230;-70
2023/01/14 07:49:40;;;;;;;6.73;2.47;;;;;;;5.20;100.00;96546.13;4978360;28;20207;-70
2023/01/14 07:52:07;;;;;;;6.13;2.73;;;;;;;5.18;100.00;96547.22;4979273;28;20211;-70
2023/01/14 07:54:35;;;;;;;13.87;2.40;;;;;;;5.47;100.00;96538.44;4978210;28;20203;-69
2023/01/14 07:57:01;;;;;;;8.67;2.33;;;;;;;5.36;100.00;96538.59;4978131;28;20230;-70
2023/01/14 07:59:27;;;;;;;7.07;2.07;;;;;;;5.31;100.00;96542.56;4979476;28;20199;-70
2023/01/14 08:01:54;;;;;;;17.00;3.00;;;;;;;5.52;100.00;96536.22;4979064;28;20918;-70
2023/01/14 08:04:20;;;;;;;6.27;2.33;;;;;;;5.60;100.00;96542.41;4977375;28;20281;-69
2023/01/14 08:06:47;;;;;;;5.87;2.40;;;;;;;5.56;100.00;96530.59;4978855;28;20218;-70
2023/01/14 08:09:13;;;;;;;4.87;2.20;;;;;;;5.65;100.00;96524.53;4979263;28;20214;-70
2023/01/14 08:11:41;;;;;;;6.23;2.40;;;;;;;5.74;100.00;96525.44;4977809;28;20203;-70
2023/01/14 08:14:08;;;;;;;7.27;2.10;;;;;;;5.71;100.00;96528.34;4977112;28;20683;-70
2023/01/14 08:16:34;;;;;;;7.77;2.13;;;;;;;5.77;100.00;96520.00;4978485;28;20231;-70
2023/01/14 08:19:02;;;;;;;8.37;2.33;;;;;;;5.97;100.00;96518.97;4978051;28;20750;-70
2023/01/14 08:21:28;;;;;;;11.90;3.27;;;;;;;6.03;100.00;96513.16;4978137;28;20628;-70
2023/01/14 08:23:54;;;;;;;7.60;2.50;;;;;;;6.09;100.00;96505.56;4977695;28;20457;-70
2023/01/14 08:26:21;;;;;;;11.20;1.87;;;;;;;6.11;100.00;96504.47;4977994;28;20967;-70
2023/01/14 08:28:49;;;;;;;6.63;1.53;;;;;;;6.16;100.00;96504.00;4978326;28;20207;-70
2023/01/14 08:31:17;;;;;;;12.13;2.20;;;;;;;6.14;100.00;96501.53;4978301;28;20278;-71
2023/01/14 08:33:44;;;;;;;8.57;1.90;;;;;;;6.10;100.00;96489.72;4977291;28;20199;-70
2023/01/14 08:36:13;;;;;;;9.10;2.63;;;;;;;6.20;100.00;96490.50;4978156;28;20250;-70
2023/01/14 08:38:42;;;;;;;7.60;2.17;;;;;;;6.35;100.00;96498.69;4977439;28;20675;-70
2023/01/14 08:41:10;;;;;;;4.13;1.73;;;;;;;6.35;100.00;96491.69;4978302;28;20204;-70
2023/01/14 08:43:37;;;;;;;11.13;2.00;;;;;;;6.36;100.00;96488.09;4974725;28;20912;-70
2023/01/14 08:46:07;;;;;;;5.97;2.07;;;;;;;6.47;100.00;96487.91;4974816;28;20206;-70
2023/01/14 08:48:34;;;;;;;8.87;1.47;;;;;;;6.34;100.00;96484.81;4976627;28;20711;-70
2023/01/14 08:51:01;;;;;;;7.53;1.87;;;;;;;6.41;100.00;96472.78;4977061;28;20210;-70
2023/01/14 08:53:28;;;;;;;3.80;1.67;;;;;;;6.56;100.00;96475.75;4975995;28;20294;-70
2023/01/14 08:55:56;;;;;;;14.60;3.17;;;;;;;6.69;100.00;96456.06;4976407;28;20520;-70
2023/01/14 08:58:23;;;;;;;15.43;2.60;;;;;;;6.62;100.00;96460.25;4976786;28;20234;-70
2023/01/14 09:00:49;;;;;;;14.73;2.90;;;;;;;6.72;100.00;96458.38;4976409;28;20257;-69
2023/01/14 09:03:17;;;;;;;10.17;1.93;;;;;;;6.73;100.00;96457.41;4976897;28;20230;-70
2023/01/14 09:05:44;;;;;;;11.00;2.97;;;;;;;6.73;99.91;96460.03;4976022;28;20209;-69
2023/01/14 09:19:10;;;;;;;15.70;4.00;;;;;;;7.38;98.46;96452.59;4977872;28;20310;-70
2023/01/14 09:21:37;;;;;;;14.40;4.00;;;;;;;7.40;96.97;96448.84;4977841;28;20210;-70
2023/01/14 09:24:04;;;;;;;8.13;2.70;;;;;;;7.43;97.88;96451.19;4976721;28;20223;-70
2023/01/14 09:26:30;;;;;;;11.53;2.27;;;;;;;7.56;95.63;96450.75;4977313;28;20203;-70
2023/01/14 09:28:56;;;;;;;10.50;1.70;;;;;;;7.59;95.67;96443.41;4978329;28;20214;-70
2023/01/14 09:31:23;;;;;;;4.17;1.60;;;;;;;7.79;95.61;96442.25;4977356;28;20207;-70
2023/01/14 09:33:49;;;;;;;8.03;1.60;;;;;;;7.80;94.11;96436.00;4976781;28;20200;-70
2023/01/14 09:36:17;;;;;;;8.57;1.30;;;;;;;7.96;92.15;96436.09;4977633;28;20207;-70
2023/01/14 09:38:44;;;;;;;8.77;1.37;;;;;;;7.96;91.85;96436.09;4974890;28;20828;-70
2023/01/14 09:41:23;;;;;;;5.17;1.87;;;;;;;8.16;91.20;96442.78;4976075;28;20200;-70
2023/01/14 09:43:49;;;;;;;2.37;1.27;;;;;;;8.07;90.48;96430.56;4976177;28;21099;-70
2023/01/14 09:46:16;;;;;;;7.23;1.60;;;;;;;8.14;89.77;96439.50;4976183;28;20212;-70
2023/01/14 09:48:42;;;;;;;5.27;1.60;;;;;;;8.09;90.73;96431.25;4976762;28;20203;-70
2023/01/14 09:51:32;;;;;;;4.70;1.10;;;;;;;8.27;88.57;96427.56;4979717;28;20203;-70
2023/01/14 09:54:05;;;;;;;8.13;2.00;;;;;;;8.18;88.61;96425.09;4979794;28;21020;-70
2023/01/14 09:56:36;;;;;;;9.80;1.87;;;;;;;8.20;89.50;96418.69;4979241;28;20206;-70
2023/01/14 09:59:10;;;;;;;6.77;1.73;;;;;;;8.11;89.44;96413.56;4979921;28;20203;-70
2023/01/14 10:01:41;;;;;;;10.50;2.87;;;;;;;8.24;89.08;96408.72;4979548;28;21086;-70
2023/01/14 10:04:25;;;;;;;5.33;1.97;;;;;;;8.32;88.78;96395.59;4979305;28;20238;-70
2023/01/14 10:06:56;;;;;;;14.43;2.90;;;;;;;8.21;89.03;96388.84;4980113;28;20227;-70
2023/01/14 10:09:27;;;;;;;3.17;1.47;;;;;;;8.19;88.70;96385.56;4976404;28;20207;-70
2023/01/14 10:11:55;;;;;;;4.17;1.90;;;;;;;8.29;88.05;96381.00;4977431;28;21349;-70
2023/01/14 10:14:28;;;;;;;12.50;2.20;;;;;;;8.47;87.97;96367.75;4978499;28;20204;-70
2023/01/14 10:17:00;;;;;;;5.13;1.50;;;;;;;8.33;88.58;96363.13;4979384;28;20231;-70
2023/01/14 10:19:35;;;;;;;7.00;2.07;;;;;;;8.39;88.41;96370.34;4979720;28;20208;-70
2023/01/14 10:22:13;;;;;;;4.97;1.47;;;;;;;8.45;87.75;96367.09;4979049;28;20214;-70
2023/01/14 10:24:42;;;;;;;3.97;1.63;;;;;;;8.37;87.50;96367.06;4978954;28;20695;-70
2023/01/14 10:27:14;;;;;;;8.33;2.50;;;;;;;8.53;88.18;96352.19;4980196;28;20227;-70
2023/01/14 10:29:41;;;;;;;17.53;3.43;;;;;;;8.45;87.96;96346.06;4980632;28;20198;-70
2023/01/14 10:32:12;;;;;;;9.27;2.47;;;;;;;8.53;86.54;96337.22;4977006;28;20981;-70
2023/01/14 10:34:42;;;;;;;20.23;4.80;;;;;;;8.63;85.42;96329.19;4979382;28;20199;-70
2023/01/14 10:37:11;;;;;;;6.73;1.33;;;;;;;8.75;84.04;96323.44;4978664;28;20234;-69
2023/01/14 10:39:43;;;;;;;4.57;1.80;;;;;;;8.89;84.30;96317.53;4978678;28;20204;-69
2023/01/14 10:42:11;;;;;;;10.47;3.43;;;;;;;8.69;83.91;96300.50;4979442;28;20211;-70
2023/01/14 10:44:43;;;;;;;9.87;1.47;;;;;;;8.75;83.62;96305.06;4979694;28;20223;-69
2023/01/14 10:47:13;;;;;;;5.60;2.97;;;;;;;8.68;82.78;96303.25;4978760;28;20230;-70
2023/01/14 10:49:44;;;;;;;6.70;2.20;;;;;;;8.92;82.38;96300.63;4980161;28;20207;-69
2023/01/14 10:52:25;;;;;;;8.53;2.10;;;;;;;8.73;81.29;96293.06;4979731;28;20207;-70
2023/01/14 10:54:58;;;;;;;2.53;1.33;;;;;;;8.96;81.47;96288.78;4979622;28;20199;-70
2023/01/14 10:57:25;;;;;;;16.53;6.30;;;;;;;8.71;82.83;96293.25;4979618;28;20227;-70
2023/01/14 10:59:54;;;;;;;12.13;3.50;;;;;;;8.97;80.93;96283.38;4979784;28;21084;-70
2023/01/14 11:02:34;;;;;;;12.47;3.90;;;;;;;9.08;81.57;96283.03;4979302;28;20203;-70
2023/01/14 11:05:02;;;;;;;5.57;2.10;;;;;;;8.91;81.68;96276.16;4979285;28;20223;-70
2023/01/14 11:07:34;;;;;;;7.70;1.80;;;;;;;9.12;81.35;96273.84;4979083;28;20695;-70
2023/01/14 11:10:04;;;;;;;9.40;3.10;;;;;;;9.22;80.10;96266.59;4979620;28;20215;-70
2023/01/14 11:12:32;;;;;;;6.93;1.60;;;;;;;9.21;80.97;96267.56;4979751;28;20203;-70
2023/01/14 11:15:00;;;;;;;4.50;1.10;;;;;;;9.22;79.78;96256.88;4978437;28;20210;-70
2023/01/14 11:17:28;;;;;;;4.07;1.67;;;;;;;9.42;80.45;96265.19;4979202;28;20233;-70
2023/01/14 11:20:20;;;;;;;5.20;1.83;;;;;;;9.51;79.70;96261.56;4979590;28;20207;-70
2023/01/14 11:22:55;;;;;;;4.47;1.77;;;;;;;9.35;79.85;96240.56;4979546;28;20250;-70
2023/01/14 11:25:22;;;;;;;7.40;3.30;;;;;;;9.51;79.92;96240.50;4978239;28;20230;-70
2023/01/14 11:27:50;;;;;;;6.00;2.30;;;;;;;9.67;79.89;96230.75;4979797;28;20219;-70
2023/01/14 11:30:19;;;;;;;4.13;1.53;;;;;;;9.85;77.68;96234.78;4979544;28;20207;-70
2023/01/14 11:32:49;;;;;;;3.23;1.47;;;;;;;9.82;76.79;96229.03;4979460;28;20210;-70
2023/01/14 11:35:20;;;;;;;8.90;1.17;;;;;;;9.68;77.00;96233.19;4978454;28;20586;-70
2023/01/14 11:37:49;;;;;;;4.63;1.43;;;;;;;9.88;76.42;96228.34;4979248;28;20222;-70
2023/01/14 11:40:23;;;;;;;1.47;1.10;;;;;;;9.88;76.25;96217.81;4978988;28;20203;-70
2023/01/14 11:42:50;;;;;;;2.87;1.30;;;;;;;9.80;76.96;96217.84;4979473;28;20739;-70
2023/01/14 11:45:21;;;;;;;6.70;1.63;;;;;;;10.00;76.29;96212.00;4978025;28;20235;-70
2023/01/14 11:47:48;;;;;;;4.30;1.53;;;;;;;9.96;77.35;96194.91;4978786;28;20231;-70
2023/01/14 11:50:21;;;;;;;5.73;1.63;;;;;;;10.20;75.61;96193.97;4978864;28;20720;-70
2023/01/14 11:53:00;;;;;;;3.10;1.20;;;;;;;10.00;76.18;96183.03;4980107;28;20203;-70
2023/01/14 11:55:30;;;;;;;2.00;1.20;;;;;;;9.75;75.85;96176.28;4977737;28;20202;-69
2023/01/14 11:58:02;;;;;;;4.60;1.57;;;;;;;9.97;75.80;96175.50;4978599;28;20800;-69
2023/01/14 12:00:31;;;;;;;13.93;3.43;;;;;;;9.88;76.44;96158.09;4978935;28;20211;-69
2023/01/14 12:03:02;;;;;;;12.50;3.87;;;;;;;10.03;75.51;96166.09;4978772;28;20261;-70
2023/01/14 12:05:29;;;;;;;7.53;2.67;;;;;;;9.98;75.52;96161.34;4977467;28;20227;-70
2023/01/14 12:07:59;;;;;;;7.77;2.60;;;;;;;10.05;76.80;96150.94;4979128;28;20226;-70
2023/01/14 12:10:30;;;;;;;4.73;1.73;;;;;;;9.88;74.35;96144.94;4978098;28;20699;-70
2023/01/14 12:18:41;;;;;;;18.40;5.83;;;;;;;10.08;74.91;96138.25;4978206;28;20281;-70
2023/01/14 12:21:07;;;;;;;13.33;4.13;;;;;;;9.93;75.17;96132.06;4977496;28;20210;-70